Time;durP1;ratioP1;P1;durP2;ratioP2;P2;SDS_P1;SDS_P2;PMS_P1;PMS_P2;Temp;Humidity;BMP_temperature;BMP_pressure;BME280_temperature;BME280_humidity;BME280_pressure;Samples;Min_cycle;Max_cycle;Signal;HPM_P1;HPM_P2
2020/12/12 00:01:17;;;;;;;15.03;11.43;;;3.40;99.90;;;;;;4987157;28;20441;-68
2020/12/12 00:03:43;;;;;;;12.97;10.93;;;3.40;99.90;;;;;;4986372;28;20803;-68
2020/12/12 00:06:08;;;;;;;13.40;12.00;;;3.50;99.90;;;;;;4987074;28;20199;-68
2020/12/12 00:08:34;;;;;;;16.30;12.87;;;3.50;99.90;;;;;;4985406;28;20588;-68
2020/12/12 00:10:59;;;;;;;17.80;12.77;;;3.50;99.90;;;;;;4987056;28;20192;-67
2020/12/12 00:13:25;;;;;;;18.00;11.17;;;3.50;99.90;;;;;;4988717;28;20183;-68
2020/12/12 00:15:50;;;;;;;13.80;11.23;;;3.50;99.90;;;;;;4988833;28;20782;-67
2020/12/12 00:18:16;;;;;;;11.53;10.33;;;3.50;99.90;;;;;;4988932;28;20175;-68
2020/12/12 00:20:41;;;;;;;14.17;10.27;;;3.60;99.90;;;;;;4990197;28;20188;-67
2020/12/12 00:23:07;;;;;;;12.57;10.90;;;3.70;99.90;;;;;;4989865;28;20215;-68
2020/12/12 00:25:32;;;;;;;11.57;9.83;;;3.70;99.90;;;;;;4990556;28;20235;-67
2020/12/12 00:27:58;;;;;;;14.30;11.40;;;3.80;99.90;;;;;;4990158;28;20183;-67
2020/12/12 00:30:24;;;;;;;10.83;9.30;;;3.80;99.90;;;;;;4990646;28;20206;-67
2020/12/12 00:32:49;;;;;;;13.40;9.97;;;3.80;99.90;;;;;;4990338;28;20288;-67
2020/12/12 00:35:15;;;;;;;12.33;9.87;;;3.80;99.90;;;;;;4993453;28;20211;-67
2020/12/12 00:37:40;;;;;;;13.40;9.53;;;3.70;99.90;;;;;;4995396;28;20180;-68
2020/12/12 00:40:06;;;;;;;9.83;8.60;;;3.70;99.90;;;;;;4994276;28;20171;-68
2020/12/12 00:42:32;;;;;;;10.70;7.60;;;3.80;99.90;;;;;;5003352;28;20593;-68
2020/12/12 00:44:57;;;;;;;21.00;9.57;;;3.80;99.90;;;;;;5007186;28;20226;-68
2020/12/12 00:47:23;;;;;;;10.07;8.63;;;3.80;99.90;;;;;;4997821;28;20664;-68
2020/12/12 00:49:48;;;;;;;12.33;7.70;;;3.90;99.90;;;;;;5001382;28;20649;-68
2020/12/12 00:52:14;;;;;;;13.10;7.40;;;3.90;99.90;;;;;;5000725;28;20237;-68
2020/12/12 00:54:39;;;;;;;9.97;8.27;;;3.80;99.90;;;;;;4993526;28;20265;-67
2020/12/12 00:57:05;;;;;;;11.43;9.57;;;3.80;99.90;;;;;;4993565;28;20696;-68
2020/12/12 00:59:30;;;;;;;9.90;7.97;;;3.80;99.90;;;;;;4993145;28;20214;-68
2020/12/12 01:01:56;;;;;;;9.30;7.47;;;3.90;99.90;;;;;;4992877;28;20183;-68
2020/12/12 01:04:21;;;;;;;11.73;9.37;;;3.90;99.90;;;;;;4993815;28;20253;-68
2020/12/12 01:06:47;;;;;;;9.80;8.63;;;3.90;99.90;;;;;;4991744;28;20195;-67
2020/12/12 01:09:13;;;;;;;10.30;8.70;;;4.00;99.90;;;;;;4985282;28;20271;-68
2020/12/12 01:11:39;;;;;;;9.83;8.03;;;4.00;99.90;;;;;;4993804;28;20567;-67
2020/12/12 01:14:05;;;;;;;8.33;7.23;;;4.00;99.90;;;;;;4993552;28;20554;-67
2020/12/12 01:16:31;;;;;;;8.50;7.20;;;3.90;99.90;;;;;;4994045;28;20520;-68
2020/12/12 01:18:56;;;;;;;11.37;7.73;;;3.90;99.90;;;;;;4993417;28;20572;-67
2020/12/12 01:21:22;;;;;;;10.23;8.60;;;3.90;99.90;;;;;;4993663;28;20187;-68
2020/12/12 01:23:47;;;;;;;10.03;8.00;;;3.90;99.90;;;;;;4993403;28;20657;-67
2020/12/12 01:26:13;;;;;;;8.80;7.90;;;3.90;99.90;;;;;;4993104;28;20175;-67
2020/12/12 01:28:39;;;;;;;9.60;8.40;;;3.90;99.90;;;;;;4992450;28;20175;-67
2020/12/12 01:31:05;;;;;;;9.20;7.50;;;3.80;99.90;;;;;;4993148;28;20434;-68
2020/12/12 01:33:31;;;;;;;11.03;8.47;;;3.80;99.90;;;;;;4992980;28;20802;-69
2020/12/12 01:35:56;;;;;;;9.77;8.67;;;3.80;99.90;;;;;;4992864;28;20207;-68
2020/12/12 01:38:22;;;;;;;10.80;7.87;;;3.80;99.90;;;;;;4992195;28;20176;-68
2020/12/12 01:40:47;;;;;;;8.33;7.50;;;3.80;99.90;;;;;;4992870;28;20179;-68
2020/12/12 01:43:13;;;;;;;8.93;6.90;;;3.80;99.90;;;;;;4992916;28;20183;-68
2020/12/12 01:45:39;;;;;;;9.50;8.40;;;3.70;99.90;;;;;;4992990;28;20210;-68
2020/12/12 01:48:08;;;;;;;11.70;8.87;;;3.80;99.90;;;;;;4992114;28;20262;-68
2020/12/12 01:50:35;;;;;;;11.33;7.87;;;3.70;99.90;;;;;;4992344;28;20473;-68
2020/12/12 01:53:01;;;;;;;10.50;8.27;;;3.70;99.90;;;;;;4992307;28;20784;-67
2020/12/12 01:55:26;;;;;;;10.47;7.47;;;3.70;99.90;;;;;;4992485;28;20489;-68
2020/12/12 01:57:53;;;;;;;10.87;8.63;;;3.70;99.90;;;;;;4992130;28;20457;-67
2020/12/12 02:00:21;;;;;;;11.20;9.27;;;3.70;99.90;;;;;;4992425;28;20172;-68
2020/12/12 02:02:49;;;;;;;10.93;7.97;;;3.70;99.90;;;;;;4992561;28;20466;-67
2020/12/12 02:05:39;;;;;;;9.80;7.33;;;3.80;99.90;;;;;;4992260;28;20542;-68
2020/12/12 02:08:07;;;;;;;8.53;7.47;;;3.80;99.90;;;;;;4991893;28;20431;-68
2020/12/12 02:10:34;;;;;;;10.10;7.57;;;3.90;99.90;;;;;;4991920;28;20434;-67
2020/12/12 02:13:01;;;;;;;18.07;16.20;;;3.90;99.90;;;;;;4992157;28;20434;-68
2020/12/12 02:15:26;;;;;;;16.70;14.97;;;3.90;99.90;;;;;;4992128;28;20504;-67
2020/12/12 02:17:52;;;;;;;16.93;15.20;;;3.90;99.90;;;;;;4991412;28;20454;-68
2020/12/12 02:20:17;;;;;;;13.70;12.30;;;3.90;99.90;;;;;;4992170;28;20172;-68
2020/12/12 02:22:45;;;;;;;14.07;11.23;;;3.90;99.90;;;;;;4991754;28;20229;-68
2020/12/12 02:25:11;;;;;;;12.07;8.87;;;3.90;99.90;;;;;;4992123;28;20207;-68
2020/12/12 02:27:37;;;;;;;11.20;8.67;;;3.90;99.90;;;;;;4991475;28;20443;-68
2020/12/12 02:30:05;;;;;;;12.27;9.83;;;3.90;99.90;;;;;;4992004;28;20266;-67
2020/12/12 02:32:30;;;;;;;9.20;8.23;;;3.90;99.90;;;;;;4992073;28;20296;-68
2020/12/12 02:34:56;;;;;;;11.63;8.70;;;3.90;99.90;;;;;;4992437;28;20517;-66
2020/12/12 02:37:21;;;;;;;11.23;8.80;;;3.80;99.90;;;;;;4991589;28;20314;-67
2020/12/12 02:39:47;;;;;;;11.00;8.23;;;3.70;99.90;;;;;;4991502;28;20222;-66
2020/12/12 02:42:12;;;;;;;9.20;8.30;;;3.70;99.90;;;;;;4991725;28;20175;-66
2020/12/12 02:44:38;;;;;;;9.83;7.80;;;3.70;99.90;;;;;;4991349;28;20673;-66
2020/12/12 02:47:03;;;;;;;10.37;8.03;;;3.70;99.90;;;;;;4991590;28;20179;-65
2020/12/12 02:49:29;;;;;;;9.57;7.63;;;3.70;99.90;;;;;;4991296;28;20568;-66
2020/12/12 02:51:55;;;;;;;9.37;7.60;;;3.70;99.90;;;;;;4991437;28;20179;-66
2020/12/12 02:54:20;;;;;;;9.30;8.20;;;3.70;99.90;;;;;;4991326;28;20605;-67
2020/12/12 02:56:46;;;;;;;12.47;8.20;;;3.70;99.90;;;;;;4991328;28;20307;-66
2020/12/12 02:59:11;;;;;;;9.10;8.00;;;3.70;99.90;;;;;;4991163;28;20175;-66
2020/12/12 03:01:41;;;;;;;13.70;8.70;;;3.80;99.90;;;;;;4990713;28;20740;-66
2020/12/12 03:04:07;;;;;;;10.43;8.40;;;3.80;99.90;;;;;;4991426;28;20203;-66
2020/12/12 03:06:32;;;;;;;10.87;8.40;;;3.80;99.90;;;;;;4991181;28;20517;-66
2020/12/12 03:08:58;;;;;;;9.50;7.80;;;3.80;99.90;;;;;;4991521;28;20534;-66
2020/12/12 03:11:24;;;;;;;12.10;8.37;;;3.80;99.90;;;;;;4991240;28;20223;-67
2020/12/12 03:13:49;;;;;;;12.87;10.00;;;3.80;99.90;;;;;;4991318;28;20190;-67
2020/12/12 03:16:15;;;;;;;10.90;9.80;;;3.80;99.90;;;;;;4990822;28;20569;-66
2020/12/12 03:18:40;;;;;;;12.73;9.00;;;3.80;99.90;;;;;;4990320;28;20187;-66
2020/12/12 03:21:06;;;;;;;11.63;9.93;;;3.80;99.90;;;;;;4990153;28;20182;-66
2020/12/12 03:23:31;;;;;;;11.50;8.60;;;3.80;99.90;;;;;;4991004;28;20172;-67
2020/12/12 03:25:57;;;;;;;11.13;9.87;;;3.70;99.90;;;;;;4990947;28;20684;-66
2020/12/12 03:28:22;;;;;;;12.77;9.70;;;3.80;99.90;;;;;;4990723;28;20184;-66
2020/12/12 03:30:48;;;;;;;12.10;9.17;;;3.70;99.90;;;;;;4990958;28;20237;-67
2020/12/12 03:33:14;;;;;;;13.60;10.10;;;3.70;99.90;;;;;;4990721;28;20341;-66
2020/12/12 03:35:39;;;;;;;11.43;9.20;;;3.70;99.90;;;;;;4990521;28;20612;-67
2020/12/12 03:38:05;;;;;;;13.23;10.53;;;3.70;99.90;;;;;;4990769;28;20184;-66
2020/12/12 03:40:30;;;;;;;11.17;8.87;;;3.70;99.90;;;;;;4990816;28;20524;-67
2020/12/12 03:42:56;;;;;;;12.50;10.63;;;3.70;99.90;;;;;;4990733;28;20207;-66
2020/12/12 03:45:22;;;;;;;12.77;10.37;;;3.70;99.90;;;;;;4990986;28;20207;-66
2020/12/12 03:47:48;;;;;;;18.23;9.60;;;3.80;99.90;;;;;;4990570;28;20246;-66
2020/12/12 03:50:14;;;;;;;11.93;10.40;;;3.80;99.90;;;;;;4990671;28;20439;-66
2020/12/12 03:52:40;;;;;;;14.63;10.20;;;3.80;99.90;;;;;;4990520;28;20450;-67
2020/12/12 03:55:06;;;;;;;15.10;11.00;;;3.80;99.90;;;;;;4990306;28;20459;-67
2020/12/12 03:57:32;;;;;;;12.40;10.20;;;3.80;99.90;;;;;;4989856;28;20441;-65
2020/12/12 03:59:57;;;;;;;16.60;10.50;;;3.80;99.90;;;;;;4990053;28;20589;-66
2020/12/12 04:02:23;;;;;;;13.13;10.60;;;3.80;99.90;;;;;;4990650;28;20187;-66
2020/12/12 04:04:48;;;;;;;14.20;11.50;;;3.80;99.90;;;;;;4990583;28;20207;-66
2020/12/12 04:07:14;;;;;;;12.33;9.70;;;3.80;99.90;;;;;;4990496;28;20171;-67
2020/12/12 04:09:39;;;;;;;12.30;10.07;;;3.80;99.90;;;;;;4990158;28;20186;-67
2020/12/12 04:12:05;;;;;;;14.90;11.03;;;3.80;99.90;;;;;;4991477;28;20183;-66
2020/12/12 04:14:31;;;;;;;14.03;10.30;;;3.80;99.90;;;;;;4994402;28;20199;-66
2020/12/12 04:16:57;;;;;;;12.00;10.60;;;3.90;99.90;;;;;;4994410;28;20235;-67
2020/12/12 04:19:22;;;;;;;14.10;10.30;;;3.90;99.90;;;;;;4994035;28;20645;-67
2020/12/12 04:21:48;;;;;;;10.60;9.50;;;3.90;99.90;;;;;;4994730;28;20226;-66
2020/12/12 04:24:13;;;;;;;12.30;10.30;;;3.90;99.90;;;;;;4994424;28;20618;-66
2020/12/12 04:26:39;;;;;;;14.03;10.20;;;3.90;99.90;;;;;;4994042;28;20240;-67
2020/12/12 04:29:04;;;;;;;13.60;10.57;;;3.90;99.90;;;;;;4992572;28;20279;-66
2020/12/12 04:31:30;;;;;;;16.03;10.50;;;3.90;99.90;;;;;;4994082;28;20211;-66
2020/12/12 04:33:55;;;;;;;13.63;10.67;;;3.90;99.90;;;;;;4994036;28;20204;-66
2020/12/12 04:36:21;;;;;;;13.50;10.30;;;4.00;99.90;;;;;;4994152;28;20719;-67
2020/12/12 04:38:48;;;;;;;14.63;10.30;;;4.10;99.90;;;;;;4993674;28;20250;-66
2020/12/12 04:41:14;;;;;;;11.97;9.10;;;4.10;99.90;;;;;;4994131;28;20179;-66
2020/12/12 04:43:42;;;;;;;11.87;9.03;;;4.10;99.90;;;;;;4994509;28;20425;-66
2020/12/12 04:46:08;;;;;;;15.33;9.90;;;4.20;99.90;;;;;;4994335;28;20434;-65
2020/12/12 04:48:34;;;;;;;11.67;9.10;;;4.20;99.90;;;;;;4993704;28;20833;-66
2020/12/12 04:51:00;;;;;;;11.30;9.07;;;4.20;99.90;;;;;;4994039;28;20434;-67
2020/12/12 04:53:25;;;;;;;11.47;9.47;;;4.30;99.90;;;;;;4994247;28;20211;-67
2020/12/12 04:55:53;;;;;;;12.20;9.60;;;4.30;99.90;;;;;;4993701;28;20904;-66
2020/12/12 04:58:22;;;;;;;11.07;9.20;;;4.30;99.90;;;;;;4993787;28;20180;-66
2020/12/12 05:00:49;;;;;;;11.87;9.50;;;4.30;99.90;;;;;;4993190;28;20509;-66
2020/12/12 05:03:20;;;;;;;12.20;9.73;;;4.30;99.90;;;;;;4993745;28;20505;-66
2020/12/12 05:05:46;;;;;;;11.73;8.83;;;4.20;99.90;;;;;;4993343;28;20831;-67
2020/12/12 05:08:13;;;;;;;11.47;9.30;;;4.30;99.90;;;;;;4993386;28;20442;-67
2020/12/12 05:10:42;;;;;;;11.77;10.03;;;4.30;99.90;;;;;;4993357;28;21010;-66
2020/12/12 05:13:30;;;;;;;13.83;10.37;;;4.30;99.90;;;;;;4993503;28;20850;-67
2020/12/12 05:15:57;;;;;;;9.90;8.10;;;4.30;99.90;;;;;;4992795;28;20528;-66
2020/12/12 05:18:24;;;;;;;10.80;8.30;;;4.20;99.90;;;;;;4992691;28;20513;-66
2020/12/12 05:20:50;;;;;;;12.73;9.13;;;4.20;99.90;;;;;;4993198;28;20473;-66
2020/12/12 05:23:17;;;;;;;9.53;7.90;;;4.20;99.90;;;;;;4992825;28;20429;-66
2020/12/12 05:25:45;;;;;;;12.83;9.50;;;4.20;99.90;;;;;;4992922;28;20541;-66
2020/12/12 05:28:12;;;;;;;10.93;8.40;;;4.20;99.90;;;;;;4992494;28;20437;-67
2020/12/12 05:30:39;;;;;;;9.70;8.50;;;4.30;99.90;;;;;;4993130;28;20501;-66
2020/12/12 05:33:07;;;;;;;11.47;9.10;;;4.30;99.90;;;;;;4993035;28;20439;-67
2020/12/12 05:35:33;;;;;;;11.60;8.50;;;4.30;99.90;;;;;;4992623;28;20561;-67
2020/12/12 05:38:00;;;;;;;12.03;9.40;;;4.30;99.90;;;;;;5007598;28;20506;-66
2020/12/12 05:40:26;;;;;;;11.30;8.20;;;4.30;99.90;;;;;;4992308;28;20434;-67
2020/12/12 05:42:52;;;;;;;11.63;8.93;;;4.30;99.90;;;;;;4993064;28;20449;-67
2020/12/12 05:45:17;;;;;;;11.50;8.50;;;4.30;99.90;;;;;;4992610;28;20200;-66
2020/12/12 05:47:43;;;;;;;10.77;8.67;;;4.30;99.90;;;;;;4992462;28;20183;-66
2020/12/12 05:50:10;;;;;;;11.57;8.40;;;4.30;99.90;;;;;;4992520;28;20218;-66
2020/12/12 05:52:41;;;;;;;10.80;9.30;;;4.30;99.90;;;;;;4992679;28;20719;-66
2020/12/12 05:55:07;;;;;;;13.10;9.00;;;4.20;99.90;;;;;;4992479;28;20561;-67
2020/12/12 05:57:32;;;;;;;10.50;8.27;;;4.20;99.90;;;;;;4992414;28;20513;-66
2020/12/12 05:59:59;;;;;;;9.53;8.20;;;4.30;99.90;;;;;;4992217;28;20454;-67
2020/12/12 06:02:26;;;;;;;11.13;9.13;;;4.20;99.90;;;;;;4992548;28;20176;-66
2020/12/12 06:04:53;;;;;;;10.53;8.77;;;4.20;99.90;;;;;;4992318;28;20447;-66
2020/12/12 06:07:29;;;;;;;11.13;8.20;;;4.20;99.90;;;;;;4992398;28;20473;-67
2020/12/12 06:10:04;;;;;;;11.83;8.73;;;4.20;99.90;;;;;;4992161;28;20466;-66
2020/12/12 06:12:31;;;;;;;10.43;8.50;;;4.20;99.90;;;;;;4992419;28;20441;-66
2020/12/12 06:14:59;;;;;;;11.03;7.93;;;4.30;99.90;;;;;;4992248;28;21001;-66
2020/12/12 06:18:05;;;;;;;11.20;9.53;;;4.30;99.90;;;;;;4988212;28;21003;-66
2020/12/12 06:20:32;;;;;;;11.43;8.63;;;4.30;99.90;;;;;;4992240;28;20426;-66
2020/12/12 06:22:59;;;;;;;12.57;9.40;;;4.30;99.90;;;;;;4992496;28;20430;-66
2020/12/12 06:25:27;;;;;;;13.30;8.90;;;4.30;99.90;;;;;;4991957;28;20454;-66
2020/12/12 06:27:54;;;;;;;12.17;8.17;;;4.30;99.90;;;;;;4992259;28;20928;-66
2020/12/12 06:30:23;;;;;;;9.30;8.00;;;4.30;99.90;;;;;;4992271;28;20465;-66
2020/12/12 06:32:49;;;;;;;11.97;9.50;;;4.30;99.90;;;;;;4992592;28;20951;-66
2020/12/12 06:35:15;;;;;;;10.17;8.60;;;4.30;99.90;;;;;;4991074;28;20467;-65
2020/12/12 06:37:41;;;;;;;10.83;8.53;;;4.30;99.90;;;;;;4991503;28;20988;-66
2020/12/12 06:40:08;;;;;;;10.23;8.37;;;4.30;99.90;;;;;;4991931;28;20517;-66
2020/12/12 06:42:38;;;;;;;11.03;8.80;;;4.30;99.90;;;;;;4991928;28;20658;-66
2020/12/12 06:45:16;;;;;;;12.40;8.57;;;4.30;99.90;;;;;;4991441;28;20446;-66
2020/12/12 06:47:53;;;;;;;12.07;8.10;;;4.30;99.90;;;;;;4991471;28;20422;-66
2020/12/12 06:50:24;;;;;;;11.03;8.13;;;4.40;99.90;;;;;;4990275;28;20427;-66
2020/12/12 06:52:50;;;;;;;9.57;6.80;;;4.40;99.90;;;;;;4994968;28;20441;-66
2020/12/12 06:55:18;;;;;;;9.57;7.17;;;4.40;99.90;;;;;;4991288;28;20477;-66
2020/12/12 06:57:45;;;;;;;8.00;6.57;;;4.40;99.90;;;;;;4991448;28;20427;-67
2020/12/12 07:00:20;;;;;;;12.43;9.37;;;4.40;99.90;;;;;;4991603;28;20441;-66
2020/12/12 07:03:06;;;;;;;8.97;7.13;;;4.40;99.90;;;;;;4991496;28;20434;-66
2020/12/12 07:05:37;;;;;;;8.60;7.23;;;4.40;99.90;;;;;;4991430;28;20536;-66
2020/12/12 07:08:12;;;;;;;9.30;7.50;;;4.40;99.90;;;;;;4991225;28;20487;-66
2020/12/12 07:10:40;;;;;;;12.93;8.63;;;4.40;99.90;;;;;;4997233;28;20556;-66
2020/12/12 07:13:07;;;;;;;9.33;8.13;;;4.40;99.90;;;;;;4991239;28;20469;-66
2020/12/12 07:15:35;;;;;;;9.63;8.37;;;4.40;99.90;;;;;;4991221;28;20553;-67
2020/12/12 07:18:13;;;;;;;11.90;9.17;;;4.40;99.90;;;;;;4990904;28;20441;-67
2020/12/12 07:20:44;;;;;;;10.90;8.40;;;4.40;99.90;;;;;;4989426;28;20430;-66
2020/12/12 07:23:09;;;;;;;10.43;8.73;;;4.40;99.90;;;;;;4980581;28;20431;-66
2020/12/12 07:25:35;;;;;;;10.80;7.97;;;4.40;99.90;;;;;;4982226;28;20458;-66
2020/12/12 07:28:03;;;;;;;11.23;8.13;;;4.40;99.90;;;;;;4981026;28;20234;-66
2020/12/12 07:30:28;;;;;;;8.43;7.53;;;4.50;99.90;;;;;;4987378;28;20442;-67
2020/12/12 07:32:54;;;;;;;10.30;8.13;;;4.50;99.90;;;;;;4991136;28;21128;-67
2020/12/12 07:35:19;;;;;;;8.53;7.63;;;4.50;99.90;;;;;;4987726;28;20239;-65
2020/12/12 07:37:45;;;;;;;11.03;7.77;;;4.50;99.90;;;;;;4982820;28;20194;-65
2020/12/12 07:40:11;;;;;;;12.57;8.10;;;4.60;99.90;;;;;;4982851;28;20250;-65
2020/12/12 07:42:37;;;;;;;13.07;7.90;;;4.60;99.90;;;;;;4989975;28;20172;-65
2020/12/12 07:45:26;;;;;;;10.40;8.67;;;4.60;99.90;;;;;;4995097;28;20989;-65
2020/12/12 07:48:03;;;;;;;10.47;8.60;;;4.70;99.90;;;;;;4983616;28;20548;-65
2020/12/12 07:50:29;;;;;;;9.27;7.73;;;4.70;99.90;;;;;;4981666;28;20980;-65
2020/12/12 07:52:55;;;;;;;8.80;7.90;;;4.70;99.90;;;;;;4982543;28;20435;-64
2020/12/12 07:55:23;;;;;;;8.50;6.60;;;4.80;99.90;;;;;;4982207;28;20266;-64
2020/12/12 07:57:53;;;;;;;17.10;13.80;;;4.80;99.90;;;;;;4997007;28;20800;-66
2020/12/12 08:00:19;;;;;;;11.13;8.70;;;4.80;99.90;;;;;;4978932;28;20490;-65
2020/12/12 08:02:46;;;;;;;10.67;7.43;;;4.80;99.90;;;;;;4984968;28;20432;-64
2020/12/12 08:05:11;;;;;;;10.47;7.57;;;4.80;99.90;;;;;;4984013;28;20755;-65
2020/12/12 08:07:37;;;;;;;9.23;7.23;;;4.80;99.90;;;;;;4986621;28;20442;-65
2020/12/12 08:10:05;;;;;;;8.47;6.83;;;4.80;99.90;;;;;;4997942;28;20199;-65
2020/12/12 08:12:36;;;;;;;8.00;6.70;;;4.80;99.90;;;;;;4990978;28;20175;-65
2020/12/12 08:15:11;;;;;;;9.70;7.50;;;4.90;99.90;;;;;;4990473;28;20463;-65
2020/12/12 08:17:37;;;;;;;9.40;7.37;;;4.90;99.90;;;;;;4990260;28;20512;-65
2020/12/12 08:20:03;;;;;;;10.87;7.43;;;4.90;99.90;;;;;;4996763;28;20461;-65
2020/12/12 08:22:29;;;;;;;11.00;8.90;;;4.90;99.90;;;;;;5000882;28;20215;-65
2020/12/12 08:24:57;;;;;;;8.57;7.50;;;5.00;99.90;;;;;;4990649;28;20454;-65
2020/12/12 08:27:25;;;;;;;11.03;7.40;;;5.00;99.90;;;;;;4990033;28;20826;-65
2020/12/12 08:29:54;;;;;;;10.00;6.60;;;5.10;99.90;;;;;;5000839;28;20437;-64
2020/12/12 08:32:37;;;;;;;7.70;6.90;;;5.20;99.90;;;;;;4987072;28;20837;-65
2020/12/12 08:35:21;;;;;;;8.90;6.63;;;5.30;99.90;;;;;;4990173;28;20601;-66
2020/12/12 08:37:58;;;;;;;9.53;6.73;;;5.30;99.90;;;;;;5002349;28;20453;-66
2020/12/12 08:40:29;;;;;;;8.33;6.70;;;5.30;99.90;;;;;;4993084;28;20861;-66
2020/12/12 08:42:59;;;;;;;12.27;7.03;;;5.30;99.90;;;;;;4999362;28;20474;-66
2020/12/12 08:45:26;;;;;;;7.60;6.80;;;5.30;99.90;;;;;;4990058;28;20465;-66
2020/12/12 08:48:12;;;;;;;6.93;6.23;;;5.30;99.90;;;;;;5001942;28;20505;-66
2020/12/12 08:50:44;;;;;;;7.23;6.53;;;5.40;99.90;;;;;;4999483;28;20472;-67
2020/12/12 08:53:28;;;;;;;9.53;7.33;;;5.40;99.90;;;;;;4990311;28;20488;-67
2020/12/12 08:56:06;;;;;;;7.50;6.30;;;5.30;99.90;;;;;;4990424;28;20470;-65
2020/12/12 08:58:42;;;;;;;7.53;6.83;;;5.30;99.90;;;;;;4989854;28;20857;-66
2020/12/12 09:01:09;;;;;;;8.47;6.87;;;5.30;99.90;;;;;;4993651;28;20430;-65
2020/12/12 09:03:35;;;;;;;8.90;6.90;;;5.20;99.90;;;;;;5006632;28;20435;-66
2020/12/12 09:06:06;;;;;;;9.27;6.37;;;5.20;99.90;;;;;;4993981;28;20920;-66
2020/12/12 09:08:32;;;;;;;7.20;6.20;;;5.20;99.90;;;;;;4993210;28;20451;-66
2020/12/12 09:11:12;;;;;;;8.40;7.37;;;5.20;99.90;;;;;;4993640;28;20998;-66
2020/12/12 09:13:38;;;;;;;11.57;7.40;;;5.30;99.90;;;;;;4993525;28;20250;-67
2020/12/12 09:16:07;;;;;;;10.13;7.40;;;5.30;99.90;;;;;;4993227;28;20462;-67
2020/12/12 09:18:46;;;;;;;9.50;7.83;;;5.40;99.90;;;;;;4992850;28;20462;-67
2020/12/12 09:21:12;;;;;;;7.83;6.87;;;5.50;99.90;;;;;;4993119;28;20438;-67
2020/12/12 09:23:38;;;;;;;7.30;6.33;;;5.60;99.90;;;;;;4992896;28;20785;-67
2020/12/12 09:26:04;;;;;;;7.47;6.63;;;5.60;99.90;;;;;;4992748;28;20505;-67
2020/12/12 09:28:30;;;;;;;9.23;6.70;;;5.70;99.90;;;;;;4992364;28;20485;-67
2020/12/12 09:30:56;;;;;;;7.60;6.53;;;5.80;99.90;;;;;;4992360;28;20849;-66
2020/12/12 09:33:21;;;;;;;11.33;9.93;;;5.80;99.90;;;;;;4993305;28;20431;-68
2020/12/12 09:35:47;;;;;;;10.07;9.03;;;5.90;99.90;;;;;;4993000;28;20204;-67
2020/12/12 09:38:13;;;;;;;7.60;6.70;;;5.90;99.90;;;;;;4992912;28;20278;-65
2020/12/12 09:40:38;;;;;;;6.30;5.67;;;6.00;99.90;;;;;;4993221;28;20661;-67
2020/12/12 09:43:04;;;;;;;7.20;6.50;;;6.00;99.90;;;;;;4992659;28;20183;-67
2020/12/12 09:45:29;;;;;;;8.63;7.27;;;6.10;99.90;;;;;;4992925;28;20191;-70
2020/12/12 09:47:55;;;;;;;7.90;7.10;;;6.30;99.90;;;;;;4992504;28;20176;-65
2020/12/12 09:50:21;;;;;;;5.87;5.33;;;6.30;99.90;;;;;;4992719;28;20191;-66
2020/12/12 09:52:47;;;;;;;6.60;5.47;;;6.30;99.90;;;;;;4992661;28;20183;-67
2020/12/12 09:55:13;;;;;;;5.23;4.73;;;6.30;99.90;;;;;;4992454;28;20203;-69
2020/12/12 09:57:38;;;;;;;6.23;5.63;;;6.20;99.90;;;;;;4992445;28;20426;-67
2020/12/12 10:00:04;;;;;;;6.80;6.20;;;6.20;99.90;;;;;;4992186;28;20198;-67
2020/12/12 10:02:29;;;;;;;6.03;5.27;;;6.10;99.90;;;;;;4999387;28;20186;-67
2020/12/12 10:04:55;;;;;;;6.87;4.97;;;6.10;99.90;;;;;;4997444;28;20249;-66
2020/12/12 10:07:20;;;;;;;5.33;4.83;;;6.10;99.90;;;;;;4994577;28;20184;-68
2020/12/12 10:09:46;;;;;;;4.90;4.50;;;6.10;99.90;;;;;;4987356;28;20555;-67
2020/12/12 10:12:11;;;;;;;5.60;4.13;;;6.20;99.90;;;;;;4981485;28;20638;-66
2020/12/12 10:14:37;;;;;;;5.40;4.90;;;6.30;99.90;;;;;;4986334;28;20200;-67
2020/12/12 10:17:02;;;;;;;5.17;4.67;;;6.20;99.90;;;;;;4992328;28;20708;-67
2020/12/12 10:19:28;;;;;;;4.47;4.07;;;6.30;99.90;;;;;;4991632;28;20172;-68
2020/12/12 10:21:53;;;;;;;4.77;4.30;;;6.30;99.90;;;;;;4992400;28;20180;-66
2020/12/12 10:24:19;;;;;;;5.03;4.13;;;6.30;99.90;;;;;;4991573;28;20219;-68
2020/12/12 10:26:47;;;;;;;5.07;4.20;;;6.40;99.90;;;;;;4982722;28;20184;-67
2020/12/12 10:29:13;;;;;;;4.57;4.13;;;6.40;99.90;;;;;;4991818;28;20176;-66
2020/12/12 10:31:38;;;;;;;7.70;4.10;;;6.50;99.90;;;;;;4991566;28;20780;-67
2020/12/12 10:34:04;;;;;;;4.30;3.90;;;6.50;99.90;;;;;;5003802;28;20334;-68
2020/12/12 10:36:29;;;;;;;5.23;4.00;;;6.60;99.90;;;;;;4996041;28;20234;-68
2020/12/12 10:38:55;;;;;;;3.90;3.60;;;6.60;99.90;;;;;;5007031;28;20195;-67
2020/12/12 10:41:20;;;;;;;4.50;3.80;;;6.60;99.90;;;;;;4992059;28;20184;-69
2020/12/12 10:43:48;;;;;;;4.83;4.40;;;6.70;99.90;;;;;;4986793;28;20177;-69
2020/12/12 10:46:13;;;;;;;4.33;3.93;;;6.70;99.90;;;;;;4991361;28;20283;-69
2020/12/12 10:48:39;;;;;;;7.17;5.07;;;6.70;99.90;;;;;;4989053;28;20521;-69
2020/12/12 10:51:04;;;;;;;4.63;4.17;;;6.80;99.90;;;;;;4991731;28;20190;-69
2020/12/12 10:53:30;;;;;;;6.47;5.00;;;6.80;99.90;;;;;;4991669;28;20183;-68
2020/12/12 10:55:55;;;;;;;10.20;5.30;;;6.80;99.90;;;;;;4990990;28;20242;-68
2020/12/12 10:58:21;;;;;;;6.50;5.10;;;6.80;99.90;;;;;;4991104;28;20215;-68
2020/12/12 11:00:49;;;;;;;5.20;4.07;;;6.90;99.90;;;;;;4991343;28;20175;-68
2020/12/12 11:03:15;;;;;;;4.23;3.83;;;6.90;99.90;;;;;;4991500;28;20636;-68
2020/12/12 11:05:40;;;;;;;5.17;4.47;;;7.00;99.90;;;;;;4991085;28;20570;-68
2020/12/12 11:08:06;;;;;;;3.83;3.43;;;7.10;99.90;;;;;;4990764;28;20190;-68
2020/12/12 11:10:31;;;;;;;4.27;3.70;;;7.10;99.90;;;;;;4990908;28;20258;-68
2020/12/12 11:12:57;;;;;;;4.07;3.67;;;7.10;99.90;;;;;;4991040;28;20302;-65
2020/12/12 11:15:23;;;;;;;5.23;4.47;;;7.00;99.90;;;;;;4987730;28;20218;-66
2020/12/12 11:17:48;;;;;;;4.20;3.70;;;6.90;99.90;;;;;;4982610;28;20187;-67
2020/12/12 11:20:15;;;;;;;6.47;4.30;;;6.90;99.90;;;;;;4987884;28;20176;-67
2020/12/12 11:22:41;;;;;;;3.90;3.40;;;6.90;99.90;;;;;;4986299;28;20168;-66
2020/12/12 11:25:07;;;;;;;3.23;2.93;;;6.90;99.90;;;;;;4996893;28;20470;-67
2020/12/12 11:27:33;;;;;;;4.60;3.73;;;6.80;99.90;;;;;;4990854;28;20944;-68
2020/12/12 11:30:00;;;;;;;4.13;3.80;;;6.80;99.90;;;;;;4990490;28;20434;-68
2020/12/12 11:32:25;;;;;;;5.40;4.50;;;6.90;99.90;;;;;;4986976;28;20960;-68
2020/12/12 11:38:16;;;;;;;8.30;4.90;;;7.00;99.90;;;;;;4975158;28;20222;-68
2020/12/12 11:40:42;;;;;;;4.50;3.90;;;7.10;99.90;;;;;;4987822;28;20515;-68
2020/12/12 11:48:05;;;;;;;6.50;4.63;;;7.20;99.90;;;;;;4986925;28;20513;-68
2020/12/12 11:50:31;;;;;;;4.47;4.07;;;7.20;99.90;;;;;;4987459;28;20888;-68
2020/12/12 11:52:56;;;;;;;9.10;4.63;;;7.20;99.90;;;;;;4989118;28;20271;-68
2020/12/12 11:55:23;;;;;;;4.97;4.37;;;7.20;99.90;;;;;;4986754;28;20289;-68
2020/12/12 11:57:50;;;;;;;5.50;5.00;;;7.20;99.90;;;;;;4986825;28;20442;-68
2020/12/12 12:00:16;;;;;;;5.53;4.03;;;7.20;99.90;;;;;;4988380;28;20492;-68
2020/12/12 12:02:41;;;;;;;6.83;4.50;;;7.20;99.90;;;;;;4988087;28;20447;-68
2020/12/12 12:05:07;;;;;;;4.67;4.00;;;7.30;99.90;;;;;;4987212;28;20458;-68
2020/12/12 12:07:40;;;;;;;4.37;3.97;;;7.40;99.90;;;;;;4987672;28;20175;-68
2020/12/12 12:12:46;;;;;;;8.03;5.87;;;7.40;99.90;;;;;;4983467;28;20435;-68
2020/12/12 12:15:12;;;;;;;4.30;4.00;;;7.40;99.90;;;;;;4993397;28;20482;-68
2020/12/12 12:17:37;;;;;;;5.10;4.00;;;7.40;99.90;;;;;;4986887;28;20249;-68
2020/12/12 12:20:05;;;;;;;6.27;4.87;;;7.30;99.90;;;;;;4987317;28;20198;-68
2020/12/12 12:22:30;;;;;;;5.47;4.93;;;7.30;99.90;;;;;;4986513;28;20192;-68
2020/12/12 12:24:56;;;;;;;4.33;3.93;;;7.30;99.90;;;;;;4988836;28;20458;-67
2020/12/12 12:27:23;;;;;;;5.53;4.60;;;7.30;99.90;;;;;;4990733;28;20183;-68
2020/12/12 12:29:49;;;;;;;5.70;4.73;;;7.30;99.90;;;;;;4986620;28;20301;-67
2020/12/12 12:32:14;;;;;;;5.50;5.00;;;7.40;99.90;;;;;;4987288;28;21108;-68
2020/12/12 12:34:40;;;;;;;5.40;4.90;;;7.40;99.90;;;;;;4989239;28;20716;-68
2020/12/12 12:37:06;;;;;;;6.00;5.40;;;7.50;99.90;;;;;;4991131;28;20226;-68
2020/12/12 12:39:31;;;;;;;5.80;5.30;;;7.50;99.90;;;;;;4990615;28;20179;-68
2020/12/12 12:41:57;;;;;;;5.60;5.00;;;7.50;99.90;;;;;;4990166;28;20263;-68
2020/12/12 12:44:22;;;;;;;5.30;4.80;;;7.40;99.90;;;;;;4990993;28;20318;-68
2020/12/12 12:46:49;;;;;;;5.43;5.00;;;7.50;99.90;;;;;;4993590;28;20241;-68
2020/12/12 12:49:16;;;;;;;5.43;4.93;;;7.50;99.90;;;;;;4991109;28;20542;-68
2020/12/12 12:51:42;;;;;;;7.03;5.90;;;7.40;99.90;;;;;;4993602;28;20430;-68
2020/12/12 12:54:08;;;;;;;6.83;5.03;;;7.30;99.90;;;;;;4993097;28;20801;-68
2020/12/12 12:56:34;;;;;;;5.93;5.40;;;7.40;99.90;;;;;;4993639;28;20465;-67
2020/12/12 12:58:59;;;;;;;6.00;4.83;;;7.40;99.90;;;;;;4992970;28;20174;-67
2020/12/12 13:01:25;;;;;;;6.53;5.40;;;7.40;99.90;;;;;;4995255;28;20461;-67